Terminal Aerodrome Forecast
Issued by NWS Brownsville, TX

Home | Current Version | Previous Version | Text Only | Print | Product List | Glossary On
Versions: 1 2 3 4 5 6 7 8 9 10 11 12 13 14 15 16 17 18 19
000
FTUS44 KBRO 050249 AAB
TAFBRO
TAF AMD
KBRO 050249Z 0503/0524 11013KT P6SM SCT022
      TEMPO 0503/0507 BKN023
     FM050700 14011KT P6SM BKN025
     FM051200 15017G23KT P6SM OVC015
     FM051800 14017G23KT P6SM BKN025=

USA.gov is the U.S. government's official web portal to all federal, state and local government web resources and services.